createdAt,value
2023-05-19T00:00:25.022Z,65.62
2023-05-19T00:01:25.104Z,63.45
2023-05-19T00:02:25.157Z,65.41
2023-05-19T00:03:25.166Z,63.70
2023-05-19T00:04:25.178Z,64.52
2023-05-19T00:05:25.319Z,65.05
2023-05-19T00:06:25.316Z,68.01
2023-05-19T00:07:25.368Z,64.18
2023-05-19T00:08:25.435Z,65.95
2023-05-19T00:09:25.487Z,65.08
2023-05-19T00:10:25.529Z,66.94
2023-05-19T00:11:25.599Z,66.16
2023-05-19T00:12:25.661Z,64.95
2023-05-19T00:13:25.688Z,63.31
2023-05-19T00:14:25.753Z,67.16
2023-05-19T00:15:25.799Z,65.82
2023-05-19T00:16:25.829Z,65.50
2023-05-19T00:17:25.949Z,65.66
2023-05-19T00:18:25.891Z,65.61
2023-05-19T00:19:26.016Z,65.50
2023-05-19T00:20:25.954Z,68.28
2023-05-19T00:21:26.051Z,63.25
2023-05-19T00:22:26.121Z,62.23
2023-05-19T00:23:26.140Z,64.12
2023-05-19T00:24:26.206Z,62.44
2023-05-19T00:25:26.199Z,63.96
2023-05-19T00:26:26.269Z,64.83
2023-05-19T00:27:26.320Z,64.73
2023-05-19T00:28:26.329Z,66.50
2023-05-19T00:29:26.414Z,64.25
2023-05-19T00:30:26.446Z,63.94
2023-05-19T00:31:26.553Z,66.00
2023-05-19T00:32:26.513Z,63.92
2023-05-19T00:33:26.498Z,62.93
2023-05-19T00:34:26.522Z,63.05
2023-05-19T00:35:26.548Z,65.35
2023-05-19T00:36:26.605Z,61.24
2023-05-19T00:37:26.625Z,60.25
2023-05-19T00:38:26.601Z,64.55
2023-05-19T00:39:26.652Z,61.13
2023-05-19T00:40:26.610Z,64.90
2023-05-19T00:41:26.657Z,64.95
2023-05-19T00:42:26.694Z,62.37
2023-05-19T00:43:26.681Z,58.02
2023-05-19T00:44:26.689Z,63.27
2023-05-19T00:45:26.705Z,61.52
2023-05-19T00:46:26.755Z,61.00
2023-05-19T00:47:26.800Z,63.07
2023-05-19T00:48:26.704Z,64.01
2023-05-19T00:49:26.755Z,63.90
2023-05-19T00:50:26.721Z,62.65
2023-05-19T00:51:26.730Z,62.72
2023-05-19T00:52:26.746Z,59.85
2023-05-19T00:53:26.737Z,64.98
2023-05-19T00:54:26.719Z,66.91
2023-05-19T00:55:26.714Z,65.55
2023-05-19T00:56:26.696Z,63.21
2023-05-19T00:57:26.727Z,61.10
2023-05-19T00:58:26.735Z,62.52
2023-05-19T00:59:26.751Z,59.65
2023-05-19T01:00:26.735Z,61.15
2023-05-19T01:01:27.054Z,62.53
2023-05-19T01:02:26.818Z,61.15
2023-05-19T01:03:26.831Z,63.25
2023-05-19T01:04:26.727Z,64.08
2023-05-19T01:05:26.678Z,60.28
2023-05-19T01:06:26.792Z,63.91
2023-05-19T01:07:26.708Z,60.32
2023-05-19T01:08:26.751Z,63.20
2023-05-19T01:09:26.757Z,61.62
2023-05-19T01:10:26.716Z,62.48
2023-05-19T01:11:26.770Z,61.32
2023-05-19T01:12:26.727Z,62.72
2023-05-19T01:13:26.755Z,61.12
2023-05-19T01:14:26.728Z,64.13
2023-05-19T01:15:26.728Z,64.47
2023-05-19T01:16:26.737Z,63.97
2023-05-19T01:17:26.801Z,62.29
2023-05-19T01:18:26.756Z,61.99
2023-05-19T01:19:26.794Z,61.63
2023-05-19T01:20:26.766Z,62.49
2023-05-19T01:21:26.768Z,61.26
2023-05-19T01:22:26.766Z,62.28
2023-05-19T01:23:26.801Z,64.64
2023-05-19T01:24:26.743Z,63.17
2023-05-19T01:25:26.761Z,61.43
2023-05-19T01:26:26.778Z,60.92
2023-05-19T01:27:26.780Z,62.27
2023-05-19T01:28:26.785Z,62.43
2023-05-19T01:29:26.801Z,59.68
2023-05-19T01:30:26.739Z,59.36
2023-05-19T01:31:26.762Z,61.42
2023-05-19T01:32:26.816Z,64.61
2023-05-19T01:33:26.759Z,61.88
2023-05-19T01:34:26.746Z,60.77
2023-05-19T01:35:26.723Z,60.64
2023-05-19T01:36:26.746Z,60.02
2023-05-19T01:37:26.742Z,63.40
2023-05-19T01:38:26.849Z,62.08
2023-05-19T01:39:26.707Z,62.51
2023-05-19T01:40:26.729Z,61.18
2023-05-19T01:41:26.708Z,62.93
2023-05-19T01:42:26.726Z,60.88
2023-05-19T01:43:26.889Z,61.87
2023-05-19T01:44:26.723Z,63.77
2023-05-19T01:45:26.694Z,61.46
2023-05-19T01:46:26.797Z,61.97
2023-05-19T01:47:26.716Z,62.36
2023-05-19T01:48:26.712Z,61.66
2023-05-19T01:49:26.685Z,62.60
2023-05-19T01:50:26.683Z,62.42
2023-05-19T01:51:26.685Z,61.03
2023-05-19T01:52:26.705Z,61.37
2023-05-19T01:53:26.721Z,64.30
2023-05-19T01:54:26.684Z,64.62
2023-05-19T01:55:26.698Z,58.69
2023-05-19T01:56:26.721Z,59.95
2023-05-19T01:57:26.683Z,58.81
2023-05-19T01:58:26.710Z,60.58
2023-05-19T01:59:26.717Z,57.79
2023-05-19T02:00:26.739Z,60.85
2023-05-19T02:01:26.780Z,62.99
2023-05-19T02:02:26.752Z,62.70
2023-05-19T02:03:26.663Z,61.56
2023-05-19T02:04:26.700Z,61.23
2023-05-19T02:05:26.652Z,61.48
2023-05-19T02:06:26.666Z,62.12
2023-05-19T02:07:26.738Z,63.56
2023-05-19T02:08:26.704Z,59.78
2023-05-19T02:09:26.657Z,58.76
2023-05-19T02:10:26.678Z,57.61
2023-05-19T02:11:26.667Z,59.78
2023-05-19T02:12:26.677Z,59.99
2023-05-19T02:13:26.672Z,59.02
2023-05-19T02:14:26.637Z,60.75
2023-05-19T02:15:26.698Z,59.04
2023-05-19T02:16:26.685Z,58.04
2023-05-19T02:17:26.694Z,60.07
2023-05-19T02:18:26.676Z,60.38
2023-05-19T02:19:26.771Z,58.69
2023-05-19T02:20:26.646Z,60.05
2023-05-19T02:21:26.657Z,58.40
2023-05-19T02:22:27.588Z,59.89
2023-05-19T02:23:26.754Z,58.22
2023-05-19T02:24:26.644Z,57.31
2023-05-19T02:25:27.617Z,58.53
2023-05-19T02:26:26.624Z,59.85
2023-05-19T02:27:26.667Z,60.04
2023-05-19T02:28:26.684Z,57.93
2023-05-19T02:29:26.685Z,59.81
2023-05-19T02:30:26.613Z,58.41
2023-05-19T02:31:26.642Z,59.01
2023-05-19T02:32:26.676Z,55.55
2023-05-19T02:33:26.672Z,59.36
2023-05-19T02:34:26.671Z,59.53
2023-05-19T02:35:26.643Z,60.39
2023-05-19T02:36:26.635Z,56.26
2023-05-19T02:37:26.640Z,59.44
2023-05-19T02:38:26.675Z,57.36
2023-05-19T02:39:26.630Z,57.95
2023-05-19T02:40:26.639Z,59.00
2023-05-19T02:41:26.658Z,58.42
2023-05-19T02:42:26.614Z,61.27
2023-05-19T02:43:26.623Z,59.99
2023-05-19T02:44:26.648Z,56.70
2023-05-19T02:45:26.676Z,59.19
2023-05-19T02:46:26.771Z,54.37
2023-05-19T02:47:26.662Z,59.10
2023-05-19T02:48:26.672Z,56.64
2023-05-19T02:49:26.656Z,60.26
2023-05-19T02:50:26.673Z,58.26
2023-05-19T02:51:26.666Z,59.26
2023-05-19T02:52:26.669Z,58.12
2023-05-19T02:53:27.607Z,59.08
2023-05-19T02:54:26.659Z,58.07
2023-05-19T02:55:26.660Z,59.49
2023-05-19T02:56:26.668Z,59.66
2023-05-19T02:57:26.750Z,56.54
2023-05-19T02:58:26.686Z,60.38
2023-05-19T02:59:26.663Z,56.07
2023-05-19T03:00:26.670Z,62.78
2023-05-19T03:01:26.805Z,57.71
2023-05-19T03:02:26.684Z,57.64
2023-05-19T03:03:26.792Z,62.93
2023-05-19T03:04:26.693Z,55.85
2023-05-19T03:05:26.675Z,60.51
2023-05-19T03:06:26.666Z,60.90
2023-05-19T03:07:26.665Z,59.14
2023-05-19T03:08:26.648Z,57.61
2023-05-19T03:09:26.653Z,59.47
2023-05-19T03:10:26.656Z,57.47
2023-05-19T03:11:26.662Z,57.78
2023-05-19T03:12:26.669Z,59.95
2023-05-19T03:13:26.655Z,58.82
2023-05-19T03:14:26.712Z,56.96
2023-05-19T03:15:26.649Z,58.04
2023-05-19T03:16:26.674Z,54.64
2023-05-19T03:17:26.754Z,59.12
2023-05-19T03:18:26.800Z,58.24
2023-05-19T03:19:26.728Z,56.38
2023-05-19T03:20:26.651Z,56.57
2023-05-19T03:21:26.658Z,58.82
2023-05-19T03:22:26.659Z,60.01
2023-05-19T03:23:26.740Z,60.72
2023-05-19T03:24:26.678Z,58.68
2023-05-19T03:25:26.686Z,60.58
2023-05-19T03:26:26.701Z,58.29
2023-05-19T03:27:26.689Z,56.53
2023-05-19T03:28:26.744Z,59.31
2023-05-19T03:29:26.721Z,55.79
2023-05-19T03:30:26.724Z,56.06
2023-05-19T03:31:26.786Z,54.76
2023-05-19T03:32:26.814Z,56.59
2023-05-19T03:33:26.900Z,55.61
2023-05-19T03:34:26.741Z,55.95
2023-05-19T03:35:26.708Z,58.78
2023-05-19T03:36:26.744Z,56.70
2023-05-19T03:37:26.772Z,56.47
2023-05-19T03:38:26.778Z,59.87
2023-05-19T03:39:26.731Z,53.33
2023-05-19T03:40:26.759Z,58.10
2023-05-19T03:41:26.765Z,59.35
2023-05-19T03:42:26.801Z,56.05
2023-05-19T03:43:26.814Z,57.04
2023-05-19T03:44:26.775Z,57.60
2023-05-19T03:45:26.817Z,54.92
2023-05-19T03:46:26.915Z,55.12
2023-05-19T03:47:26.834Z,56.22
2023-05-19T03:48:26.856Z,55.00
2023-05-19T03:49:26.820Z,55.81
2023-05-19T03:50:26.841Z,54.28
2023-05-19T03:51:26.814Z,53.92
2023-05-19T03:52:26.849Z,58.18
2023-05-19T03:53:26.815Z,57.21
2023-05-19T03:54:26.840Z,58.89
2023-05-19T03:55:26.851Z,56.02
2023-05-19T03:56:26.825Z,53.31
2023-05-19T03:57:26.865Z,54.94
2023-05-19T03:58:26.863Z,56.91
2023-05-19T03:59:26.854Z,56.70
2023-05-19T04:00:26.857Z,58.70
2023-05-19T04:01:26.868Z,55.22
2023-05-19T04:02:26.995Z,54.58
2023-05-19T04:03:26.995Z,55.91
2023-05-19T04:04:26.957Z,54.94
2023-05-19T04:05:26.882Z,54.14
2023-05-19T04:06:26.878Z,55.11
2023-05-19T04:07:26.876Z,54.63
2023-05-19T04:08:26.907Z,55.24
2023-05-19T04:09:26.948Z,56.70
2023-05-19T04:10:26.898Z,56.10
2023-05-19T04:11:26.929Z,57.16
2023-05-19T04:12:26.930Z,55.12
2023-05-19T04:13:26.949Z,56.32
2023-05-19T04:14:26.932Z,55.89
2023-05-19T04:15:26.942Z,55.73
2023-05-19T04:16:27.038Z,53.49
2023-05-19T04:17:27.022Z,55.51
2023-05-19T04:18:28.923Z,58.65
2023-05-19T04:19:27.039Z,53.20
2023-05-19T04:20:26.974Z,54.66
2023-05-19T04:21:26.986Z,55.77
2023-05-19T04:22:26.960Z,52.82
2023-05-19T04:23:27.002Z,52.52
2023-05-19T04:24:26.977Z,52.43
2023-05-19T04:25:27.002Z,55.61
2023-05-19T04:26:27.017Z,53.28
2023-05-19T04:27:27.014Z,53.36
2023-05-19T04:28:27.018Z,53.19
2023-05-19T04:29:26.997Z,51.25
2023-05-19T04:30:26.992Z,51.75
2023-05-19T04:31:27.042Z,51.41
2023-05-19T04:32:27.033Z,47.54
2023-05-19T04:33:27.004Z,48.36
2023-05-19T04:34:27.037Z,50.38
2023-05-19T04:35:27.015Z,46.53
2023-05-19T04:36:26.994Z,47.03
2023-05-19T04:37:27.030Z,48.02
2023-05-19T04:38:27.060Z,43.75
2023-05-19T04:39:27.054Z,45.72
2023-05-19T04:40:27.053Z,46.00
2023-05-19T04:41:27.004Z,45.69
2023-05-19T04:42:27.025Z,41.71
2023-05-19T04:43:27.015Z,40.43
2023-05-19T04:44:27.049Z,44.92
2023-05-19T04:45:27.027Z,42.12
2023-05-19T04:46:27.076Z,43.98
2023-05-19T04:47:27.093Z,41.45
2023-05-19T04:48:27.039Z,40.50
2023-05-19T04:49:27.022Z,40.34
2023-05-19T04:50:27.022Z,40.34
2023-05-19T04:51:27.015Z,42.93
2023-05-19T04:52:27.026Z,41.67
2023-05-19T04:53:27.039Z,40.58
2023-05-19T04:54:27.047Z,38.40
2023-05-19T04:55:27.034Z,41.36
2023-05-19T04:56:27.018Z,39.47
2023-05-19T04:57:27.012Z,39.88
2023-05-19T04:58:26.989Z,40.73
2023-05-19T04:59:26.994Z,40.27
2023-05-19T05:00:26.999Z,40.19
2023-05-19T05:01:27.014Z,40.67
2023-05-19T05:02:27.031Z,40.60
2023-05-19T05:03:27.037Z,38.07
2023-05-19T05:04:26.950Z,41.46
2023-05-19T05:05:26.962Z,39.58
2023-05-19T05:06:26.986Z,37.06
2023-05-19T05:07:27.038Z,39.31
2023-05-19T05:08:26.975Z,40.26
2023-05-19T05:09:26.989Z,40.98
2023-05-19T05:10:26.991Z,37.09
2023-05-19T05:11:27.016Z,38.57
2023-05-19T05:12:26.965Z,39.57
2023-05-19T05:13:27.026Z,39.29
2023-05-19T05:14:26.971Z,36.33
2023-05-19T05:15:27.007Z,39.07
2023-05-19T05:16:26.995Z,39.03
2023-05-19T05:17:27.008Z,40.91
2023-05-19T05:18:26.994Z,39.84
2023-05-19T05:19:27.097Z,36.52
2023-05-19T05:20:26.947Z,38.84
2023-05-19T05:21:26.967Z,40.44
2023-05-19T05:22:26.961Z,38.06
2023-05-19T05:23:26.983Z,39.19
2023-05-19T05:24:26.977Z,40.09
2023-05-19T05:25:26.941Z,41.13
2023-05-19T05:26:26.933Z,40.21
2023-05-19T05:27:26.928Z,39.83
2023-05-19T05:28:26.917Z,33.42
2023-05-19T05:29:26.918Z,40.12
2023-05-19T05:30:26.934Z,39.86
2023-05-19T05:31:26.949Z,37.92
2023-05-19T05:32:26.955Z,36.68
2023-05-19T05:33:27.013Z,38.06
2023-05-19T05:34:26.923Z,39.08
2023-05-19T05:35:26.925Z,38.79
2023-05-19T05:36:26.956Z,39.50
2023-05-19T05:37:26.929Z,36.27
2023-05-19T05:38:26.919Z,38.61
2023-05-19T05:39:26.980Z,39.04
2023-05-19T05:40:26.942Z,37.81
2023-05-19T05:41:27.206Z,37.28
2023-05-19T05:42:29.513Z,38.05
2023-05-19T05:43:27.022Z,40.09
2023-05-19T05:44:26.978Z,43.44
2023-05-19T05:45:26.957Z,41.40
2023-05-19T05:46:27.065Z,38.29
2023-05-19T05:47:27.116Z,41.83
2023-05-19T05:48:26.946Z,38.87
2023-05-19T05:49:26.927Z,39.97
2023-05-19T05:50:26.904Z,38.57
2023-05-19T05:51:26.907Z,37.98
2023-05-19T05:52:26.903Z,39.42
2023-05-19T05:53:26.948Z,38.56
2023-05-19T05:54:26.881Z,40.84
2023-05-19T05:55:26.892Z,39.64
2023-05-19T05:56:26.896Z,37.82
2023-05-19T05:57:26.869Z,37.69
2023-05-19T05:58:26.936Z,40.03
2023-05-19T05:59:26.870Z,39.75
2023-05-19T06:00:26.837Z,40.34
2023-05-19T06:01:26.858Z,41.03
2023-05-19T06:02:26.892Z,40.80
2023-05-19T06:03:26.944Z,39.56
2023-05-19T06:04:26.863Z,39.14
2023-05-19T06:05:26.892Z,40.57
2023-05-19T06:06:26.787Z,40.01
2023-05-19T06:07:26.823Z,38.36
2023-05-19T06:08:26.826Z,39.39
2023-05-19T06:09:26.798Z,41.01
2023-05-19T06:10:26.784Z,42.94
2023-05-19T06:11:26.792Z,39.52
2023-05-19T06:12:26.769Z,37.09
2023-05-19T06:13:26.773Z,38.04
2023-05-19T06:14:26.774Z,37.70
2023-05-19T06:15:26.765Z,36.54
2023-05-19T06:16:26.756Z,36.87
2023-05-19T06:17:26.791Z,38.29
2023-05-19T06:18:26.721Z,38.93
2023-05-19T06:19:26.873Z,37.09
2023-05-19T06:20:26.705Z,37.74
2023-05-19T06:21:26.728Z,37.93
2023-05-19T06:22:26.724Z,32.11
2023-05-19T06:23:26.750Z,33.78
2023-05-19T06:24:26.680Z,34.48
2023-05-19T06:25:26.701Z,34.32
2023-05-19T06:26:26.738Z,33.46
2023-05-19T06:27:26.696Z,38.30
2023-05-19T06:28:26.625Z,34.71
2023-05-19T06:29:26.668Z,33.61
2023-05-19T06:30:26.664Z,33.24
2023-05-19T06:31:26.698Z,34.88
2023-05-19T06:32:26.689Z,34.39
2023-05-19T06:33:28.985Z,37.30
2023-05-19T06:34:26.658Z,37.32
2023-05-19T06:35:26.676Z,36.29
2023-05-19T06:36:26.603Z,34.05
2023-05-19T06:37:26.613Z,35.48
2023-05-19T06:38:26.604Z,33.98
2023-05-19T06:39:26.566Z,33.92
2023-05-19T06:40:26.597Z,32.77
2023-05-19T06:41:26.567Z,29.53
2023-05-19T06:42:26.598Z,32.51
2023-05-19T06:43:26.576Z,34.62
2023-05-19T06:44:26.557Z,34.09
2023-05-19T06:45:26.547Z,34.78
2023-05-19T06:46:26.565Z,34.26
2023-05-19T06:47:26.560Z,35.44
2023-05-19T06:48:26.550Z,30.97
2023-05-19T06:49:26.523Z,35.57
2023-05-19T06:50:26.494Z,35.23
2023-05-19T06:51:26.500Z,30.15
2023-05-19T06:52:26.512Z,29.79
2023-05-19T06:53:26.495Z,35.26
2023-05-19T06:54:26.533Z,30.84
2023-05-19T06:55:26.495Z,33.39
2023-05-19T06:56:26.467Z,34.36
2023-05-19T06:57:26.438Z,32.11
2023-05-19T06:58:26.474Z,33.90
2023-05-19T06:59:26.463Z,35.11
2023-05-19T07:00:26.439Z,33.89
2023-05-19T07:01:26.600Z,30.47
2023-05-19T07:02:26.443Z,31.02
2023-05-19T07:03:26.498Z,33.33
2023-05-19T07:04:26.472Z,38.35
2023-05-19T07:05:26.393Z,30.79
2023-05-19T07:06:26.465Z,33.97
2023-05-19T07:07:26.417Z,30.25
2023-05-19T07:08:26.391Z,36.44
2023-05-19T07:09:26.377Z,31.73
2023-05-19T07:10:26.461Z,35.06
2023-05-19T07:11:26.367Z,33.50
2023-05-19T07:12:26.353Z,31.04
2023-05-19T07:13:27.569Z,34.52
2023-05-19T07:14:26.355Z,31.92
2023-05-19T07:15:26.364Z,30.35
2023-05-19T07:16:26.372Z,34.37
2023-05-19T07:17:26.387Z,32.01
2023-05-19T07:18:26.400Z,32.37
2023-05-19T07:19:26.548Z,34.66
2023-05-19T07:20:26.544Z,32.82
2023-05-19T07:21:26.609Z,35.16
2023-05-19T07:22:26.532Z,35.02
2023-05-19T07:23:26.618Z,32.96
2023-05-19T07:24:26.673Z,35.52
2023-05-19T07:25:26.794Z,32.68
2023-05-19T07:26:26.766Z,35.88
2023-05-19T07:27:26.786Z,32.17
2023-05-19T07:28:26.800Z,31.51
2023-05-19T07:29:26.873Z,28.00
2023-05-19T07:30:26.902Z,29.91
2023-05-19T07:31:26.984Z,30.03
2023-05-19T07:32:27.098Z,31.98
2023-05-19T07:33:27.049Z,26.83
2023-05-19T07:34:27.106Z,30.36
2023-05-19T07:35:27.160Z,30.13
2023-05-19T07:36:27.183Z,30.81
2023-05-19T07:37:27.225Z,26.31
2023-05-19T07:38:27.259Z,28.31
2023-05-19T07:39:27.336Z,27.04
2023-05-19T07:40:27.393Z,25.00
2023-05-19T07:41:27.408Z,30.42
2023-05-19T07:42:27.457Z,26.99
2023-05-19T07:43:27.505Z,28.16
2023-05-19T07:44:27.551Z,28.34
2023-05-19T07:45:27.632Z,30.69
2023-05-19T07:46:27.774Z,32.63
2023-05-19T07:47:27.749Z,26.32
2023-05-19T07:48:27.745Z,31.65
2023-05-19T07:49:27.777Z,30.38
2023-05-19T07:50:27.908Z,25.00
2023-05-19T07:51:27.862Z,26.11
2023-05-19T07:52:27.952Z,30.30
2023-05-19T07:53:28.025Z,30.05
2023-05-19T07:54:27.987Z,27.30
2023-05-19T07:55:28.067Z,28.26
2023-05-19T07:56:28.096Z,25.67
2023-05-19T07:57:28.119Z,28.32
2023-05-19T07:58:28.177Z,25.95
2023-05-19T07:59:28.254Z,28.93
2023-05-19T08:00:28.238Z,25.55
2023-05-19T08:01:28.286Z,26.08
2023-05-19T08:02:28.348Z,27.25
2023-05-19T08:03:28.494Z,27.63
2023-05-19T08:04:28.513Z,27.91
2023-05-19T08:05:28.412Z,26.35
2023-05-19T08:06:28.435Z,26.25
2023-05-19T08:07:28.482Z,28.61
2023-05-19T08:08:28.508Z,28.41
2023-05-19T08:09:28.579Z,30.45
2023-05-19T08:10:28.630Z,26.58
2023-05-19T08:11:28.699Z,25.37
2023-05-19T08:12:28.721Z,29.36
2023-05-19T08:13:28.768Z,27.34
2023-05-19T08:14:28.927Z,25.51
2023-05-19T08:15:28.869Z,27.78
2023-05-19T08:16:28.929Z,28.28
2023-05-19T08:17:29.060Z,30.23
2023-05-19T08:18:28.988Z,30.03
2023-05-19T08:19:29.020Z,27.36
2023-05-19T08:20:29.025Z,28.57
2023-05-19T08:21:29.125Z,26.01
2023-05-19T08:22:29.150Z,29.29
2023-05-19T08:23:29.192Z,27.91
2023-05-19T08:24:29.190Z,25.00
2023-05-19T08:25:29.197Z,28.18
2023-05-19T08:26:29.257Z,25.53
2023-05-19T08:27:29.309Z,28.73
2023-05-19T08:28:29.316Z,27.33
2023-05-19T08:29:29.371Z,29.13
2023-05-19T08:30:29.385Z,27.46
2023-05-19T08:31:29.483Z,29.15
2023-05-19T08:32:29.485Z,28.47
2023-05-19T08:33:29.479Z,25.76
2023-05-19T08:34:29.499Z,28.67
2023-05-19T08:35:29.582Z,27.16
2023-05-19T08:36:29.584Z,28.09
2023-05-19T08:37:30.396Z,29.92
2023-05-19T08:38:29.619Z,28.44
2023-05-19T08:39:29.671Z,28.58
2023-05-19T08:40:29.727Z,28.01
2023-05-19T08:41:29.725Z,32.95
2023-05-19T08:42:29.763Z,30.23
2023-05-19T08:43:29.719Z,28.89
2023-05-19T08:44:29.782Z,30.28
2023-05-19T08:45:29.951Z,28.83
2023-05-19T08:46:29.871Z,26.23
2023-05-19T08:47:29.890Z,25.84
2023-05-19T08:48:29.904Z,28.28
2023-05-19T08:49:29.893Z,27.51
2023-05-19T08:50:29.972Z,27.10
2023-05-19T08:51:29.914Z,26.01
2023-05-19T08:52:29.910Z,27.66
2023-05-19T08:53:33.984Z,27.79
2023-05-19T08:54:29.925Z,27.88
2023-05-19T08:55:30.022Z,28.01
2023-05-19T08:56:29.918Z,27.42
2023-05-19T08:57:29.928Z,26.48
2023-05-19T08:58:29.936Z,25.74
2023-05-19T08:59:29.909Z,25.00
2023-05-19T09:00:29.908Z,28.07
2023-05-19T09:01:29.956Z,27.94
2023-05-19T09:02:29.935Z,25.00
2023-05-19T09:03:30.010Z,26.70
2023-05-19T09:04:30.347Z,26.13
2023-05-19T09:05:29.979Z,25.72
2023-05-19T09:06:29.869Z,28.70
2023-05-19T09:07:29.860Z,29.18
2023-05-19T09:08:29.857Z,26.43
2023-05-19T09:09:29.826Z,26.30
2023-05-19T09:10:29.969Z,27.60
2023-05-19T09:11:29.849Z,26.27
2023-05-19T09:12:29.826Z,26.33
2023-05-19T09:13:29.775Z,26.68
2023-05-19T09:14:29.799Z,27.60
2023-05-19T09:15:29.825Z,25.00
2023-05-19T09:16:30.532Z,27.09
2023-05-19T09:17:29.809Z,28.40
2023-05-19T09:18:29.757Z,26.28
2023-05-19T09:19:29.949Z,26.89
2023-05-19T09:20:29.782Z,27.73
2023-05-19T09:21:29.741Z,27.67
2023-05-19T09:22:29.765Z,28.44
2023-05-19T09:23:29.736Z,28.12
2023-05-19T09:24:29.736Z,27.36
2023-05-19T09:25:29.704Z,26.63
2023-05-19T09:26:29.714Z,26.21
2023-05-19T09:27:29.725Z,27.36
2023-05-19T09:28:29.681Z,26.55
2023-05-19T09:29:29.743Z,27.01
2023-05-19T09:30:29.693Z,25.00
2023-05-19T09:31:29.711Z,30.68
2023-05-19T09:32:30.510Z,28.02
2023-05-19T09:33:29.668Z,30.48
2023-05-19T09:34:29.679Z,26.49
2023-05-19T09:35:29.684Z,28.50
2023-05-19T09:36:29.646Z,26.15
2023-05-19T09:37:29.674Z,28.84
2023-05-19T09:38:29.639Z,26.95
2023-05-19T09:39:29.674Z,27.70
2023-05-19T09:40:29.714Z,27.40
2023-05-19T09:41:29.668Z,28.35
2023-05-19T09:42:29.658Z,26.50
2023-05-19T09:43:29.633Z,26.06
2023-05-19T09:44:29.840Z,26.09
2023-05-19T09:45:29.696Z,26.94
2023-05-19T09:46:29.697Z,25.74
2023-05-19T09:47:29.659Z,27.60
2023-05-19T09:48:29.650Z,26.28
2023-05-19T09:49:29.631Z,29.60
2023-05-19T09:50:29.653Z,31.58
2023-05-19T09:51:29.633Z,29.95
2023-05-19T09:52:29.608Z,29.19
2023-05-19T09:53:29.643Z,28.57
2023-05-19T09:54:29.716Z,27.23
2023-05-19T09:55:29.740Z,27.54
2023-05-19T09:56:29.634Z,28.16
2023-05-19T09:57:29.714Z,26.89
2023-05-19T09:58:29.716Z,27.72
2023-05-19T09:59:32.104Z,28.17
2023-05-19T10:00:29.691Z,29.18
2023-05-19T10:01:29.801Z,25.34
2023-05-19T10:02:29.694Z,27.59
2023-05-19T10:03:29.728Z,29.99
2023-05-19T10:04:29.759Z,26.95
2023-05-19T10:05:29.703Z,25.67
2023-05-19T10:06:29.713Z,26.49
2023-05-19T10:07:29.675Z,28.50
2023-05-19T10:08:29.642Z,26.58
2023-05-19T10:09:29.765Z,27.32
2023-05-19T10:10:29.621Z,27.75
2023-05-19T10:11:29.644Z,30.30
2023-05-19T10:12:29.640Z,25.00
2023-05-19T10:13:29.618Z,29.41
2023-05-19T10:14:29.722Z,27.92
2023-05-19T10:15:29.653Z,28.14
2023-05-19T10:16:29.634Z,28.95
2023-05-19T10:17:29.621Z,27.93
2023-05-19T10:18:29.970Z,27.06
2023-05-19T10:19:29.887Z,28.18
2023-05-19T10:20:29.587Z,26.21
2023-05-19T10:21:29.583Z,26.89
2023-05-19T10:22:29.555Z,28.00
2023-05-19T10:23:29.546Z,29.16
2023-05-19T10:24:29.589Z,27.16
2023-05-19T10:25:29.568Z,27.59
2023-05-19T10:26:29.592Z,27.75
2023-05-19T10:27:29.546Z,29.37
2023-05-19T10:28:29.548Z,26.54
2023-05-19T10:29:29.539Z,27.12
2023-05-19T10:30:29.640Z,29.73
2023-05-19T10:31:29.562Z,28.15
2023-05-19T10:32:29.826Z,30.27
2023-05-19T10:33:29.478Z,26.80
2023-05-19T10:34:29.496Z,26.81
2023-05-19T10:35:29.501Z,27.68
2023-05-19T10:36:29.519Z,27.33
2023-05-19T10:37:29.454Z,25.82
2023-05-19T10:38:29.459Z,26.93
2023-05-19T10:39:29.412Z,26.53
2023-05-19T10:40:29.423Z,25.73
2023-05-19T10:41:29.468Z,26.20
2023-05-19T10:42:29.478Z,26.74
2023-05-19T10:43:29.528Z,27.15
2023-05-19T10:44:29.625Z,29.54
2023-05-19T10:45:29.767Z,29.16
2023-05-19T10:46:29.744Z,26.71
2023-05-19T10:47:29.767Z,29.18
2023-05-19T10:48:29.826Z,29.03
2023-05-19T10:49:29.881Z,26.70
2023-05-19T10:50:29.966Z,28.40
2023-05-19T10:51:29.988Z,28.70
2023-05-19T10:52:30.072Z,28.68
2023-05-19T10:53:30.167Z,30.38
2023-05-19T10:54:30.194Z,27.89
2023-05-19T10:55:30.354Z,27.42
2023-05-19T10:56:30.285Z,28.77
2023-05-19T10:57:30.361Z,29.16
2023-05-19T10:58:30.437Z,27.68
2023-05-19T10:59:30.451Z,29.77
2023-05-19T11:00:30.524Z,28.44
2023-05-19T11:01:30.572Z,30.25
2023-05-19T11:02:30.645Z,31.27
2023-05-19T11:03:30.972Z,32.01
2023-05-19T11:04:30.781Z,34.10
2023-05-19T11:05:31.103Z,35.55
2023-05-19T11:06:30.854Z,40.07
2023-05-19T11:07:30.880Z,37.86
2023-05-19T11:08:30.962Z,36.30
2023-05-19T11:09:40.059Z,36.24
2023-05-19T11:10:31.967Z,36.51
2023-05-19T11:11:33.150Z,37.53
2023-05-19T11:12:30.946Z,38.48
2023-05-19T11:13:30.965Z,40.95
2023-05-19T11:14:30.920Z,42.57
2023-05-19T11:15:31.071Z,45.83
2023-05-19T11:16:31.079Z,41.30
2023-05-19T11:17:32.191Z,46.04
2023-05-19T11:18:31.081Z,45.34
2023-05-19T11:19:31.163Z,45.63
2023-05-19T11:20:31.192Z,46.16
2023-05-19T11:21:31.215Z,45.58
2023-05-19T11:22:31.233Z,44.51
2023-05-19T11:23:32.727Z,47.46
2023-05-19T11:24:31.337Z,48.30
2023-05-19T11:25:31.529Z,47.41
2023-05-19T11:26:31.409Z,48.12
2023-05-19T11:27:31.747Z,47.49
2023-05-19T11:28:31.466Z,48.90
2023-05-19T11:29:32.887Z,51.22
2023-05-19T11:30:31.484Z,50.30
2023-05-19T11:31:31.535Z,51.78
2023-05-19T11:32:31.535Z,54.63
2023-05-19T11:33:31.495Z,53.92
2023-05-19T11:34:31.501Z,52.39
2023-05-19T11:35:33.232Z,53.89
2023-05-19T11:36:31.559Z,54.04
2023-05-19T11:37:31.583Z,54.35
2023-05-19T11:38:31.737Z,54.65
2023-05-19T11:39:31.651Z,54.62
2023-05-19T11:40:31.744Z,57.08
2023-05-19T11:41:31.749Z,56.32
2023-05-19T11:42:31.761Z,56.60
2023-05-19T11:43:31.793Z,58.27
2023-05-19T11:44:31.817Z,57.44
2023-05-19T11:45:32.016Z,57.52
2023-05-19T11:46:31.933Z,55.95
2023-05-19T11:47:38.820Z,57.22
2023-05-19T11:48:32.971Z,57.65
2023-05-19T11:49:31.896Z,59.05
2023-05-19T11:50:31.889Z,60.70
2023-05-19T11:51:31.874Z,63.20
2023-05-19T11:52:31.884Z,68.67
2023-05-19T11:53:33.133Z,67.19
2023-05-19T11:54:31.868Z,67.88
2023-05-19T11:55:31.826Z,67.68
2023-05-19T11:56:31.820Z,67.45
2023-05-19T11:57:31.827Z,67.26
2023-05-19T11:58:31.821Z,66.23
2023-05-19T11:59:33.373Z,68.52
2023-05-19T12:00:31.832Z,68.72
2023-05-19T12:01:31.860Z,69.90
2023-05-19T12:02:31.811Z,69.48
2023-05-19T12:03:31.889Z,69.00
2023-05-19T12:04:31.798Z,68.67
2023-05-19T12:05:33.149Z,68.89
2023-05-19T12:06:31.836Z,69.22
2023-05-19T12:07:31.733Z,69.43
2023-05-19T12:08:31.777Z,70.25
2023-05-19T12:09:31.730Z,71.59
2023-05-19T12:10:31.749Z,71.09
2023-05-19T12:11:31.742Z,70.50
2023-05-19T12:12:31.689Z,71.68
2023-05-19T12:13:31.697Z,72.80
2023-05-19T12:14:31.725Z,74.07
2023-05-19T12:15:31.950Z,71.70
2023-05-19T12:16:33.224Z,71.58
2023-05-19T12:17:31.674Z,76.36
2023-05-19T12:18:31.662Z,74.43
2023-05-19T12:19:31.819Z,75.03
2023-05-19T12:20:31.669Z,75.47
2023-05-19T12:21:34.345Z,73.41
2023-05-19T12:22:31.617Z,76.46
2023-05-19T12:23:31.724Z,76.02
2023-05-19T12:24:31.628Z,74.78
2023-05-19T12:25:31.733Z,75.21
2023-05-19T12:26:31.631Z,76.95
2023-05-19T12:27:33.480Z,76.83
2023-05-19T12:28:31.599Z,77.05
2023-05-19T12:29:31.565Z,77.47
2023-05-19T12:30:31.953Z,77.44
2023-05-19T12:31:31.589Z,78.86
2023-05-19T12:32:31.681Z,78.62
2023-05-19T12:33:32.900Z,80.30
2023-05-19T12:34:31.557Z,82.34
2023-05-19T12:35:31.545Z,79.31
2023-05-19T12:36:31.516Z,80.01
2023-05-19T12:37:31.565Z,79.25
2023-05-19T12:38:31.571Z,79.31
2023-05-19T12:39:31.514Z,78.32
2023-05-19T12:40:31.713Z,78.66
2023-05-19T12:41:31.479Z,79.07
2023-05-19T12:42:31.572Z,79.51
2023-05-19T12:43:31.504Z,79.73
2023-05-19T12:44:31.470Z,78.10
2023-05-19T12:45:31.538Z,78.36
2023-05-19T12:46:31.533Z,78.79
2023-05-19T12:47:31.544Z,79.64
2023-05-19T12:48:31.464Z,78.50
2023-05-19T12:49:31.449Z,80.61
2023-05-19T12:50:31.767Z,81.11
2023-05-19T12:51:31.413Z,79.95
2023-05-19T12:52:31.464Z,81.03